Have a Safe July 4th! 

Flight Track Log - Related Links

Times and Time Zones

All times are in EDT time to prevent confusion due to time zone crossing. See the N7800 flight status page for this flight to view local times or setup timezone preferences in your user account.

Time Position Orientation Groundspeed Altitude Reporting Facility
EDT Latitude Longitude Course Direction KTS MPH feet Rate Location/Type
Thu 10:21:10 AM 34.2467 -118.6708 32° Northeast 152 175 8,600  Level Los Angeles Center
Thu 10:22:24 AM 34.2811 -118.7153 313° West 178 205 8,600 44 Level Los Angeles Center
Thu 10:23:26 AM 34.3292 -118.7597 323° Northwest 180 207 8,700 581 Climbing Los Angeles Center
Thu 10:24:28 AM 34.3764 -118.7975 327° Northwest 171 197 9,800 919 Climbing Los Angeles Center
Thu 10:25:00 AM -19.8852 -160.1678 126° Southeast  Level Estimated
Thu 10:25:30 AM 34.4083 -118.8361 315° West 165 190 10,600  Level Los Angeles Center
Thu 10:26:00 AM -19.8577 -160.1494 32° Northeast  Level Estimated
Thu 10:26:32 AM 34.4450 -118.8758 318° Northwest 177 204 10,600  Level Los Angeles Center
Thu 10:27:34 AM 34.4831 -118.9142 320° Northwest 177 204 10,700 -145 Climbing Los Angeles Center
Thu 10:28:36 AM 34.5225 -118.9517 322° Northwest 182 209 10,300 -98 Descending Los Angeles Center
Thu 10:29:37 AM 34.5611 -118.9917 320° Northwest 181 208 10,500 98 Climbing Los Angeles Center
Thu 10:30:39 AM 34.6069 -119.0389 320° Northwest 179 206 10,500 97 Level Los Angeles Center
Thu 10:31:41 AM 34.6442 -119.0772 320° Northwest 177 204 10,700 97 Climbing Los Angeles Center
Thu 10:32:43 AM 34.6817 -119.1150 320° Northwest 177 204 10,700 -97 Level Los Angeles Center
Thu 10:33:45 AM 34.7197 -119.1517 322° Northwest 176 203 10,500 -97 Descending Los Angeles Center
Thu 10:34:47 AM 34.7558 -119.1892 320° Northwest 173 199 10,500  Level Los Angeles Center
Thu 10:35:49 AM 34.7914 -119.2253 320° Northwest 170 196 10,500  Level Los Angeles Center
Thu 10:36:51 AM 34.8350 -119.2708 319° Northwest 171 197 10,500  Level Los Angeles Center
Thu 10:37:53 AM 34.8722 -119.3075 321° Northwest 173 199 10,500  Level Los Angeles Center
Thu 10:38:55 AM 34.9081 -119.3456 319° Northwest 172 198 10,500  Level Los Angeles Center
Thu 10:39:57 AM 34.9439 -119.3839 319° Northwest 171 197 10,500  Level Los Angeles Center
Thu 10:40:59 AM 34.9814 -119.4225 320° Northwest 175 201 10,500  Level Los Angeles Center
Thu 10:42:00 AM 35.0119 -119.4528 321° Northwest 177 204 10,500  Level Los Angeles Center
Thu 10:43:03 AM 35.0636 -119.5078 319° Northwest 176 203 10,500  Level Los Angeles Center
Thu 10:44:05 AM 35.1008 -119.5453 321° Northwest 174 200 10,500  Level Los Angeles Center
Thu 10:45:19 AM 35.1442 -119.5906 319° Northwest 173 199 10,500  Level Los Angeles Center
Thu 10:46:21 AM 35.1817 -119.6297 320° Northwest 176 203 10,500  Level Los Angeles Center
Thu 10:47:23 AM 35.2172 -119.6664 320° Northwest 171 197 10,500  Level Los Angeles Center
Thu 10:48:25 AM 35.2542 -119.7050 320° Northwest 172 198 10,500  Level Los Angeles Center
Thu 10:49:27 AM 35.2992 -119.7508 320° Northwest 176 203 10,500  Level Los Angeles Center
Thu 10:50:29 AM 35.3356 -119.7903 319° Northwest 176 203 10,500  Level Los Angeles Center
Thu 10:51:31 AM 35.3731 -119.8297 319° Northwest 181 208 10,500  Level Los Angeles Center
Thu 10:52:29 AM 35.4097 -119.8694 319° Northwest 176 203 10,500  Level Oakland Center
Thu 10:53:31 AM 35.4453 -119.9053 321° Northwest 176 203 10,500  Level Oakland Center
Thu 10:54:32 AM 35.4850 -119.9472 319° Northwest 178 205 10,500  Level Oakland Center
Thu 10:55:33 AM 35.5233 -119.9872 320° Northwest 180 207 10,500  Level Oakland Center
Thu 10:56:35 AM 35.5603 -120.0278 318° Northwest 181 208 10,500 -49 Level Oakland Center
Thu 10:57:36 AM 35.5994 -120.0675 320° Northwest 182 209 10,400 -49 Descending Oakland Center
Thu 10:58:37 AM 35.6453 -120.1167 319° Northwest 183 211 10,400  Level Oakland Center
Thu 10:59:38 AM 35.6836 -120.1575 319° Northwest 184 212 10,400  Level Oakland Center
Thu 11:00:40 AM 35.7219 -120.1972 320° Northwest 183 211 10,400  Level Oakland Center
Thu 11:01:41 AM 35.7597 -120.2383 319° Northwest 183 211 10,400  Level Oakland Center
Thu 11:02:42 AM 35.7978 -120.2781 320° Northwest 181 208 10,400  Level Oakland Center
Thu 11:03:43 AM 35.8358 -120.3194 319° Northwest 185 213 10,400  Level Oakland Center
Thu 11:04:45 AM 35.8756 -120.3603 320° Northwest 188 216 10,400  Level Oakland Center
Thu 11:05:46 AM 35.9144 -120.4017 319° Northwest 189 217 10,400  Level Oakland Center
Thu 11:06:47 AM 35.9622 -120.4525 319° Northwest 192 221 10,400  Level Oakland Center
Thu 11:07:49 AM 36.0014 -120.4947 319° Northwest 191 220 10,400  Level Oakland Center
Thu 11:08:50 AM 36.0408 -120.5369 319° Northwest 192 221 10,400  Level Oakland Center
Thu 11:09:51 AM 36.0794 -120.5794 318° Northwest 191 220 10,400  Level Oakland Center
Thu 11:10:53 AM 36.1189 -120.6214 319° Northwest 190 219 10,400  Level Oakland Center
Thu 11:11:54 AM 36.1578 -120.6628 319° Northwest 189 217 10,400  Level Oakland Center
Thu 11:12:55 AM 36.1972 -120.7047 319° Northwest 189 217 10,400  Level Oakland Center
Thu 11:13:57 AM 36.2369 -120.7492 318° Northwest 195 224 10,400  Level Oakland Center
Thu 11:14:58 AM 36.2836 -120.7964 321° Northwest 186 214 10,400  Level Oakland Center
Thu 11:15:59 AM 36.3225 -120.8400 318° Northwest 192 221 10,400  Level Oakland Center
Thu 11:17:00 AM 36.3619 -120.8814 320° Northwest 193 222 10,400  Level Oakland Center
Thu 11:18:02 AM 36.4011 -120.9239 319° Northwest 193 222 10,400  Level Oakland Center
Thu 11:19:03 AM 36.4400 -120.9667 318° Northwest 193 222 10,400  Level Oakland Center
Thu 11:20:04 AM 36.4789 -121.0097 318° Northwest 192 221 10,400 49 Level Oakland Center
Thu 11:21:06 AM 36.5189 -121.0519 320° Northwest 193 222 10,500 49 Climbing Oakland Center
Thu 11:22:07 AM 36.5572 -121.0953 318° Northwest 192 221 10,500  Level Oakland Center
Thu 11:23:08 AM 36.5964 -121.1372 319° Northwest 190 219 10,500  Level Oakland Center
Thu 11:24:10 AM 36.6356 -121.1819 318° Northwest 194 223 10,500  Level Oakland Center
Thu 11:25:11 AM 36.6833 -121.2308 321° Northwest 192 221 10,500  Level Oakland Center
Thu 11:26:12 AM 36.7228 -121.2767 317° Northwest 196 226 10,500 -146 Level Oakland Center
Thu 11:27:14 AM 36.7633 -121.3197 320° Northwest 196 226 10,200 -439 Descending Oakland Center
Thu 11:28:15 AM 36.8072 -121.3661 320° Northwest 208 239 9,600 -585 Descending Oakland Center
Thu 11:29:17 AM 36.8489 -121.4161 316° Northwest 204 235 9,000 -585 Descending Oakland Center
Thu 11:30:18 AM 36.8822 -121.4725 306° West 202 232 8,400 -590 Descending Oakland Center
Thu 11:31:19 AM 36.9153 -121.5286 306° West 202 232 7,800 -585 Descending Oakland Center
Thu 11:32:21 AM 36.9478 -121.5856 306° West 203 234 7,200 -585 Descending Oakland Center
Thu 11:33:22 AM 36.9783 -121.6414 304° West 198 228 6,600 -585 Descending Oakland Center
Thu 11:34:24 AM 37.0275 -121.6678 337° Northwest 201 231 6,000 -616 Descending Oakland Center
Thu 11:36:27 AM 37.1322 -121.7250 336° Northwest 189 217 4,700 -620 Descending Oakland Center
Thu 11:37:28 AM 37.1697 -121.7714 315° West 188 216 4,100 -634 Descending Oakland Center
Thu 11:38:30 AM 37.2086 -121.8183 316° Northwest 191 220 3,400 -634 Descending Oakland Center
Thu 11:39:31 AM 37.2475 -121.8628 318° Northwest 191 220 2,800 -585 Descending Oakland Center
Thu 11:40:33 AM 37.2881 -121.9061 320° Northwest 191 220 2,200 -537 Descending Oakland Center
Thu 11:41:34 AM 37.3142 -121.9589 302° West 184 212 1,700 -537 Descending Oakland Center
Thu 11:42:36 AM 37.3411 -122.0139 302° West 185 213 1,100 -571 Descending Oakland Center
Thu 11:43:19 AM 37.3833 -122.0333 340° North 123 142 700 -558 Descending Northern Cal TRACON
Thu 11:45:00 AM 37.4000 -122.0333 322° Northwest  Level FlightAware Approximate
Thu 11:52:00 AM 37.4161 -122.0491 322° Northwest  Level Estimated

Login

Don't have an account? Register now (free) for customized features, flight alerts, and more!